createdAt,value
2019-05-19T00:03:34.385Z,24.53
2019-05-19T00:09:40.359Z,23.27
2019-05-19T00:15:46.361Z,24.87
2019-05-19T00:21:52.251Z,26.43
2019-05-19T00:27:58.184Z,28.00
2019-05-19T00:34:04.439Z,28.07
2019-05-19T00:40:10.656Z,29.27
2019-05-19T00:46:16.485Z,31.57
2019-05-19T00:52:22.416Z,33.23
2019-05-19T00:58:30.424Z,33.37
2019-05-19T01:04:36.338Z,35.80
2019-05-19T01:10:42.231Z,35.47
2019-05-19T01:16:48.776Z,36.67
2019-05-19T01:22:54.557Z,37.47
2019-05-19T01:29:00.769Z,38.67
2019-05-19T01:35:07.283Z,36.20
2019-05-19T01:41:13.182Z,36.83
2019-05-19T01:47:18.979Z,36.87
2019-05-19T01:53:24.919Z,39.23
2019-05-19T01:59:30.711Z,44.30
2019-05-19T02:05:36.586Z,45.53
2019-05-19T02:11:44.412Z,45.57
2019-05-19T02:17:50.207Z,39.90
2019-05-19T02:23:55.994Z,51.00
2019-05-19T02:30:02.257Z,44.47
2019-05-19T02:36:08.467Z,43.40
2019-05-19T02:42:15.641Z,42.37
2019-05-19T02:48:22.233Z,40.63
2019-05-19T02:54:29.313Z,40.43
2019-05-19T03:00:40.800Z,39.23
2019-05-19T03:06:46.650Z,37.67
2019-05-19T03:12:52.407Z,39.43
2019-05-19T03:18:58.172Z,40.67
2019-05-19T03:25:04.048Z,36.80
2019-05-19T03:31:40.761Z,41.77
2019-05-19T03:37:51.068Z,41.73
2019-05-19T03:43:56.848Z,42.17
2019-05-19T03:50:03.051Z,40.77
2019-05-19T03:56:08.809Z,36.13
2019-05-19T04:02:14.696Z,36.13
2019-05-19T04:08:20.473Z,35.87
2019-05-19T04:14:26.710Z,35.20
2019-05-19T04:20:33.170Z,34.40
2019-05-19T04:26:38.918Z,33.27
2019-05-19T04:32:45.209Z,33.70
2019-05-19T04:38:52.866Z,31.73
2019-05-19T04:44:58.812Z,28.10
2019-05-19T04:51:04.537Z,29.97
2019-05-19T04:57:10.263Z,27.73
2019-05-19T05:03:16.023Z,26.83
2019-05-19T05:09:21.809Z,27.43
2019-05-19T05:15:27.976Z,26.27
2019-05-19T05:21:36.725Z,26.53
2019-05-19T05:27:42.483Z,25.67
2019-05-19T05:33:48.408Z,27.20
2019-05-19T05:39:54.188Z,27.67
2019-05-19T05:46:00.089Z,26.80
2019-05-19T05:52:06.205Z,26.03
2019-05-19T05:58:12.203Z,26.87
2019-05-19T06:04:18.074Z,29.80
2019-05-19T06:10:23.824Z,30.00
2019-05-19T06:16:29.666Z,32.00
2019-05-19T06:22:35.850Z,31.27
2019-05-19T06:28:41.761Z,31.47
2019-05-19T06:34:47.514Z,30.13
2019-05-19T06:40:53.578Z,29.27
2019-05-19T06:46:59.514Z,29.07
2019-05-19T06:53:14.026Z,27.67
2019-05-19T06:59:15.034Z,26.93
2019-05-19T07:05:21.964Z,26.97
2019-05-19T07:11:27.877Z,25.83
2019-05-19T07:17:33.718Z,26.37
2019-05-19T07:23:39.510Z,24.30
2019-05-19T07:29:45.401Z,23.90
2019-05-19T07:35:51.463Z,23.37
2019-05-19T07:41:57.644Z,23.17
2019-05-19T07:48:03.401Z,22.67
2019-05-19T07:54:09.099Z,21.53
2019-05-19T08:00:15.010Z,20.87
2019-05-19T08:06:20.895Z,20.77
2019-05-19T08:12:28.114Z,19.87
2019-05-19T08:18:33.894Z,19.37
2019-05-19T08:24:39.785Z,16.73
2019-05-19T08:30:45.710Z,17.57
2019-05-19T08:36:51.847Z,16.33
2019-05-19T08:42:57.935Z,14.63
2019-05-19T08:49:03.704Z,13.93
2019-05-19T08:55:09.558Z,12.73
2019-05-19T09:01:15.308Z,10.70
2019-05-19T09:07:21.019Z,10.87
2019-05-19T09:13:27.523Z,10.60
2019-05-19T09:19:33.582Z,10.17
2019-05-19T09:25:39.560Z,9.73
2019-05-19T09:31:45.318Z,9.43
2019-05-19T09:37:51.617Z,8.35
2019-05-19T09:43:57.794Z,9.67
2019-05-19T09:50:03.805Z,7.23
2019-05-19T09:56:11.614Z,7.97
2019-05-19T10:02:17.718Z,7.92
2019-05-19T10:08:26.307Z,7.47
2019-05-19T10:14:32.649Z,6.37
2019-05-19T10:20:39.025Z,5.97
2019-05-19T10:26:45.151Z,5.67
2019-05-19T10:32:51.468Z,4.78
2019-05-19T10:38:57.509Z,5.37
2019-05-19T10:45:04.023Z,4.90
2019-05-19T10:51:09.871Z,4.00
2019-05-19T10:57:15.604Z,4.60
2019-05-19T11:03:21.462Z,3.98
2019-05-19T11:09:27.278Z,4.20
2019-05-19T11:15:33.036Z,3.72
2019-05-19T11:21:38.794Z,4.20
2019-05-19T11:27:44.884Z,4.13
2019-05-19T11:33:51.027Z,5.60
2019-05-19T11:39:57.093Z,4.90
2019-05-19T11:46:03.773Z,4.30
2019-05-19T11:52:09.974Z,4.30
2019-05-19T11:58:16.016Z,4.30
2019-05-19T12:04:22.219Z,5.00
2019-05-19T12:10:28.641Z,4.70
2019-05-19T12:16:34.620Z,4.50
2019-05-19T12:22:40.765Z,4.27
2019-05-19T12:28:46.794Z,4.53
2019-05-19T12:34:54.630Z,4.00
2019-05-19T12:41:01.101Z,3.83
2019-05-19T12:47:07.919Z,3.80
2019-05-19T12:53:14.510Z,3.77
2019-05-19T12:59:20.860Z,3.70
2019-05-19T13:05:26.984Z,3.83
2019-05-19T13:11:33.216Z,3.70
2019-05-19T13:17:39.415Z,3.77
2019-05-19T13:23:45.496Z,4.00
2019-05-19T13:29:51.803Z,4.77
2019-05-19T13:35:58.049Z,4.20
2019-05-19T13:42:04.312Z,3.87
2019-05-19T13:48:10.461Z,3.67
2019-05-19T13:54:16.494Z,3.70
2019-05-19T14:00:22.547Z,3.43
2019-05-19T14:06:29.240Z,4.80
2019-05-19T14:12:35.427Z,3.20
2019-05-19T14:18:41.764Z,2.83
2019-05-19T14:24:48.084Z,2.43
2019-05-19T14:30:54.339Z,1.90
2019-05-19T14:37:00.592Z,1.83
2019-05-19T14:43:07.668Z,1.80
2019-05-19T14:49:13.498Z,1.75
2019-05-19T14:55:19.610Z,2.10
2019-05-19T15:01:25.411Z,1.60
2019-05-19T15:07:31.460Z,1.50
2019-05-19T15:13:37.205Z,1.45
2019-05-19T15:19:43.107Z,1.30
2019-05-19T15:25:49.299Z,1.55
2019-05-19T15:31:55.411Z,1.60
2019-05-19T15:38:01.387Z,1.50
2019-05-19T15:44:07.092Z,1.98
2019-05-19T15:50:13.534Z,1.22
2019-05-19T15:56:19.326Z,1.50
2019-05-19T16:02:25.083Z,1.60
2019-05-19T16:08:31.339Z,1.15
2019-05-19T16:14:37.591Z,1.30
2019-05-19T16:20:45.023Z,1.40
2019-05-19T16:26:51.032Z,1.27
2019-05-19T16:32:57.568Z,1.33
2019-05-19T16:39:04.241Z,1.50
2019-05-19T16:45:10.785Z,1.50
2019-05-19T16:51:17.144Z,1.47
2019-05-19T16:57:23.157Z,1.00
2019-05-19T17:03:30.278Z,1.57
2019-05-19T17:09:36.349Z,1.40
2019-05-19T17:15:42.439Z,1.50
2019-05-19T17:21:48.667Z,1.20
2019-05-19T17:27:54.881Z,2.13
2019-05-19T17:34:01.284Z,2.10
2019-05-19T17:40:08.691Z,1.70
2019-05-19T17:46:14.861Z,1.80
2019-05-19T17:52:20.870Z,1.80
2019-05-19T17:58:27.776Z,2.10
2019-05-19T18:04:35.258Z,1.97
2019-05-19T18:10:41.136Z,2.30
2019-05-19T18:16:47.002Z,2.63
2019-05-19T18:22:52.801Z,2.30
2019-05-19T18:28:58.718Z,2.40
2019-05-19T18:35:04.797Z,2.83
2019-05-19T18:41:10.592Z,3.67
2019-05-19T18:47:16.661Z,4.50
2019-05-19T18:53:22.513Z,5.00
2019-05-19T18:59:28.327Z,6.83
2019-05-19T19:05:34.449Z,6.80
2019-05-19T19:11:40.366Z,7.00
2019-05-19T19:17:46.221Z,9.03
2019-05-19T19:23:52.152Z,9.07
2019-05-19T19:30:03.380Z,10.03
2019-05-19T19:36:05.681Z,10.50
2019-05-19T19:42:11.580Z,11.67
2019-05-19T19:48:17.472Z,11.70
2019-05-19T19:54:23.585Z,12.23
2019-05-19T20:00:46.093Z,11.63
2019-05-19T20:06:51.934Z,11.87
2019-05-19T20:12:57.745Z,12.10
2019-05-19T20:19:03.625Z,11.93
2019-05-19T20:25:09.574Z,10.97
2019-05-19T20:31:15.557Z,9.97
2019-05-19T20:37:21.630Z,10.27
2019-05-19T20:43:27.503Z,9.17
2019-05-19T20:49:33.333Z,8.63
2019-05-19T20:55:39.140Z,8.60
2019-05-19T21:01:45.165Z,9.73
2019-05-19T21:07:51.042Z,8.37
2019-05-19T21:13:56.864Z,8.13
2019-05-19T21:20:02.950Z,7.27
2019-05-19T21:26:09.025Z,7.57
2019-05-19T21:32:15.094Z,10.67
2019-05-19T21:38:21.342Z,10.50
2019-05-19T21:44:27.456Z,11.27
2019-05-19T21:50:34.293Z,11.67
2019-05-19T21:56:40.815Z,11.13
2019-05-19T22:02:46.793Z,12.97
2019-05-19T22:08:52.677Z,12.50
2019-05-19T22:15:00.024Z,12.20
2019-05-19T22:21:07.948Z,12.30
2019-05-19T22:27:13.768Z,13.43
2019-05-19T22:33:20.346Z,12.60
2019-05-19T22:39:26.514Z,13.37
2019-05-19T22:45:32.717Z,14.43
2019-05-19T22:51:40.408Z,13.57
2019-05-19T22:57:46.162Z,13.33
2019-05-19T23:03:52.002Z,13.30
2019-05-19T23:09:58.141Z,13.83
2019-05-19T23:16:03.963Z,13.70
2019-05-19T23:22:12.308Z,16.27
2019-05-19T23:28:18.369Z,14.90
2019-05-19T23:34:24.643Z,14.90
2019-05-19T23:40:30.706Z,17.07
2019-05-19T23:46:36.809Z,14.83
2019-05-19T23:52:42.678Z,16.50
2019-05-19T23:58:48.479Z,16.13
